Time;durP1;ratioP1;P1;durP2;ratioP2;P2;SDS_P1;SDS_P2;PMS_P1;PMS_P2;Temp;Humidity;BMP_temperature;BMP_pressure;BME280_temperature;BME280_humidity;BME280_pressure;Samples;Min_cycle;Max_cycle;Signal;HPM_P1;HPM_P2
2021/09/12 00:01:49;;;;;;;;;;;;;;;28.23;30.91;100566.91;5160185;27;830;-36
2021/09/12 00:04:14;;;;;;;;;;;;;;;28.22;30.85;100570.66;5160083;27;767;-36
2021/09/12 00:06:40;;;;;;;;;;;;;;;28.16;30.58;100566.84;5159837;27;819;-36
2021/09/12 00:09:05;;;;;;;;;;;;;;;28.11;30.48;100566.63;5158786;27;767;-36
2021/09/12 00:11:30;;;;;;;;;;;;;;;28.24;30.29;100557.78;5159553;27;1905;-36
2021/09/12 00:13:56;;;;;;;;;;;;;;;28.18;30.48;100556.69;5159548;27;976;-36
2021/09/12 00:16:21;;;;;;;;;;;;;;;28.18;30.36;100561.25;5159866;27;779;-35
2021/09/12 00:18:46;;;;;;;;;;;;;;;28.20;30.35;100551.91;5159738;27;754;-36
2021/09/12 00:21:12;;;;;;;;;;;;;;;28.23;30.07;100551.53;5159705;27;1620;-36
2021/09/12 00:23:37;;;;;;;;;;;;;;;28.21;30.21;100558.16;5159396;27;731;-36
2021/09/12 00:26:02;;;;;;;;;;;;;;;28.22;29.95;100543.59;5159947;27;786;-36
2021/09/12 00:28:27;;;;;;;;;;;;;;;28.15;30.25;100546.25;5159798;27;980;-37
2021/09/12 00:30:53;;;;;;;;;;;;;;;28.23;29.83;100547.97;5159033;27;1893;-37
2021/09/12 00:33:18;;;;;;;;;;;;;;;28.21;29.67;100553.56;5159232;27;735;-37
2021/09/12 00:35:43;;;;;;;;;;;;;;;28.19;29.80;100550.25;5159701;27;735;-36
2021/09/12 00:38:09;;;;;;;;;;;;;;;28.24;29.62;100545.06;5159085;27;811;-36
2021/09/12 00:40:34;;;;;;;;;;;;;;;28.21;29.92;100542.75;5159235;27;768;-36
2021/09/12 00:42:59;;;;;;;;;;;;;;;28.29;29.71;100551.78;5159693;27;763;-37
2021/09/12 00:45:25;;;;;;;;;;;;;;;28.15;29.80;100545.41;5159021;27;957;-37
2021/09/12 00:47:50;;;;;;;;;;;;;;;28.19;29.26;100544.00;5158691;27;1061;-37
2021/09/12 00:50:15;;;;;;;;;;;;;;;28.15;29.35;100542.69;5159017;27;834;-37
2021/09/12 00:52:43;;;;;;;;;;;;;;;28.13;29.48;100536.69;5140354;27;1913;-37
2021/09/12 00:55:08;;;;;;;;;;;;;;;28.19;29.27;100546.72;5159579;27;754;-36
2021/09/12 00:57:35;;;;;;;;;;;;;;;28.21;28.98;100544.66;5159415;27;719;-36
2021/09/12 01:00:00;;;;;;;;;;;;;;;28.20;29.14;100551.06;5158599;27;961;-37
2021/09/12 01:02:25;;;;;;;;;;;;;;;28.28;29.28;100544.72;5140230;27;767;-36
2021/09/12 01:04:51;;;;;;;;;;;;;;;28.14;29.41;100544.59;5159308;27;798;-36
2021/09/12 01:07:16;;;;;;;;;;;;;;;28.15;29.61;100553.53;5158850;27;874;-36
2021/09/12 01:09:41;;;;;;;;;;;;;;;28.16;29.55;100553.31;5140017;27;901;-37
2021/09/12 01:12:07;;;;;;;;;;;;;;;28.05;29.62;100551.16;5159020;27;1905;-36
2021/09/12 01:14:32;;;;;;;;;;;;;;;28.04;29.47;100561.16;5157941;27;1000;-38
2021/09/12 01:16:58;;;;;;;;;;;;;;;28.02;29.49;100546.97;5158530;27;827;-36
2021/09/12 01:19:23;;;;;;;;;;;;;;;27.99;29.81;100550.88;5158688;27;818;-38
2021/09/12 01:21:48;;;;;;;;;;;;;;;28.04;29.66;100554.91;5159104;27;1577;-39
2021/09/12 01:24:14;;;;;;;;;;;;;;;28.02;29.85;100552.38;5158325;27;759;-38
2021/09/12 01:26:39;;;;;;;;;;;;;;;28.01;29.78;100558.00;5158521;27;861;-36
2021/09/12 01:29:04;;;;;;;;;;;;;;;27.98;29.84;100560.03;5157755;27;961;-37
2021/09/12 01:31:31;;;;;;;;;;;;;;;28.02;29.63;100574.03;5158353;27;1901;-36
2021/09/12 01:33:56;;;;;;;;;;;;;;;27.96;29.97;100575.63;5158073;27;831;-37
2021/09/12 01:36:22;;;;;;;;;;;;;;;27.94;29.72;100568.75;5158360;27;776;-37
2021/09/12 01:38:47;;;;;;;;;;;;;;;27.91;29.99;100571.84;5158129;27;736;-36
2021/09/12 01:41:12;;;;;;;;;;;;;;;27.95;30.11;100570.41;5158294;27;774;-37
2021/09/12 01:43:47;;;;;;;;;;;;;;;27.93;30.13;100570.59;5158317;27;921;-37
2021/09/12 01:46:12;;;;;;;;;;;;;;;27.96;29.85;100563.97;5157833;27;810;-37
2021/09/12 01:48:38;;;;;;;;;;;;;;;27.91;30.22;100571.84;5158098;27;1145;-37
2021/09/12 01:51:03;;;;;;;;;;;;;;;27.92;30.17;100571.63;5158235;27;1915;-37
2021/09/12 01:53:28;;;;;;;;;;;;;;;27.90;30.40;100562.03;5157705;27;751;-37
2021/09/12 01:55:56;;;;;;;;;;;;;;;27.84;30.43;100559.06;5158108;27;825;-37
2021/09/12 01:58:25;;;;;;;;;;;;;;;27.81;30.37;100558.63;5158248;27;834;-37
2021/09/12 02:00:50;;;;;;;;;;;;;;;27.84;30.20;100556.34;5157722;27;906;-37
2021/09/12 02:03:16;;;;;;;;;;;;;;;27.86;29.94;100548.91;5157881;27;763;-37
2021/09/12 02:05:41;;;;;;;;;;;;;;;27.88;29.90;100554.13;5157830;27;850;-37
2021/09/12 02:08:07;;;;;;;;;;;;;;;27.90;29.89;100551.22;5157058;27;487;-37
2021/09/12 02:10:32;;;;;;;;;;;;;;;27.88;29.94;100546.00;5158005;27;870;-37
2021/09/12 02:12:57;;;;;;;;;;;;;;;27.82;29.89;100557.59;5157870;27;1901;-37
2021/09/12 02:15:22;;;;;;;;;;;;;;;27.81;30.29;100558.63;5157196;27;992;-37
2021/09/12 02:17:48;;;;;;;;;;;;;;;27.81;30.11;100556.75;5139370;27;657;-37
2021/09/12 02:20:13;;;;;;;;;;;;;;;27.90;29.89;100554.78;5157583;27;791;-37
2021/09/12 02:22:38;;;;;;;;;;;;;;;27.75;30.13;100549.41;5157408;27;1588;-37
2021/09/12 02:25:04;;;;;;;;;;;;;;;27.80;29.96;100554.25;5157934;27;787;-37
2021/09/12 02:27:29;;;;;;;;;;;;;;;27.97;29.43;100558.38;5158218;27;715;-37
2021/09/12 02:29:54;;;;;;;;;;;;;;;27.84;29.82;100550.97;5157126;27;941;-37
2021/09/12 02:32:20;;;;;;;;;;;;;;;27.90;29.79;100554.78;5160439;27;1909;-37
2021/09/12 02:34:45;;;;;;;;;;;;;;;27.82;29.91;100550.34;5161747;27;844;-37
2021/09/12 02:37:10;;;;;;;;;;;;;;;27.80;30.21;100560.50;5161675;27;790;-37
2021/09/12 02:39:35;;;;;;;;;;;;;;;27.91;29.69;100561.84;5162082;27;840;-37
2021/09/12 02:42:01;;;;;;;;;;;;;;;27.83;29.92;100559.25;5161823;27;830;-37
2021/09/12 02:44:26;;;;;;;;;;;;;;;27.94;29.58;100552.53;5142380;27;1327;-37
2021/09/12 02:46:51;;;;;;;;;;;;;;;27.95;29.46;100546.91;5161417;27;747;-37
2021/09/12 02:49:17;;;;;;;;;;;;;;;27.93;29.82;100543.56;5161559;27;1312;-37
2021/09/12 02:51:42;;;;;;;;;;;;;;;27.92;29.57;100552.72;5161478;27;1913;-40
2021/09/12 02:54:07;;;;;;;;;;;;;;;27.88;30.03;100551.41;5161733;27;723;-37
2021/09/12 02:56:32;;;;;;;;;;;;;;;27.80;30.02;100549.69;5161495;27;819;-36
2021/09/12 02:58:58;;;;;;;;;;;;;;;27.74;30.55;100551.28;5160701;27;996;-37
2021/09/12 03:01:23;;;;;;;;;;;;;;;27.91;30.07;100555.63;5161460;27;759;-37
2021/09/12 03:03:48;;;;;;;;;;;;;;;27.77;30.33;100560.03;5161003;27;1535;-37
2021/09/12 03:06:14;;;;;;;;;;;;;;;27.80;30.45;100565.06;5161246;27;793;-37
2021/09/12 03:08:39;;;;;;;;;;;;;;;27.74;30.28;100558.56;5161158;27;794;-37
2021/09/12 03:11:04;;;;;;;;;;;;;;;27.75;30.38;100560.22;5160992;27;1905;-37
2021/09/12 03:13:29;;;;;;;;;;;;;;;27.71;30.34;100562.47;5160990;27;997;-37
2021/09/12 03:15:55;;;;;;;;;;;;;;;27.78;30.57;100557.13;5160550;27;846;-38
2021/09/12 03:18:20;;;;;;;;;;;;;;;27.79;30.23;100557.97;5161013;27;799;-37
2021/09/12 03:20:45;;;;;;;;;;;;;;;27.85;30.04;100559.91;5161133;27;1612;-37
2021/09/12 03:23:11;;;;;;;;;;;;;;;27.91;30.27;100558.31;5141552;27;947;-37
2021/09/12 03:25:36;;;;;;;;;;;;;;;27.82;30.40;100558.44;5160896;27;849;-37
2021/09/12 03:28:01;;;;;;;;;;;;;;;27.80;30.13;100562.34;5161069;27;865;-37
2021/09/12 03:30:27;;;;;;;;;;;;;;;27.76;30.47;100564.59;5160595;27;965;-37
2021/09/12 03:32:52;;;;;;;;;;;;;;;27.73;30.43;100559.56;5160895;27;1973;-36
2021/09/12 03:35:17;;;;;;;;;;;;;;;27.70;30.72;100570.78;5161152;27;751;-36
2021/09/12 03:37:42;;;;;;;;;;;;;;;27.87;30.73;100568.66;5160239;27;881;-36
2021/09/12 03:40:08;;;;;;;;;;;;;;;27.96;32.02;100564.78;5161020;27;766;-36
2021/09/12 03:42:34;;;;;;;;;;;;;;;27.94;31.77;100566.03;5160590;27;791;-36
2021/09/12 03:44:59;;;;;;;;;;;;;;;27.73;30.66;100573.09;5160174;27;981;-37
2021/09/12 03:47:24;;;;;;;;;;;;;;;24.89;31.88;100566.47;5160528;27;735;-37
2021/09/12 03:49:49;;;;;;;;;;;;;;;25.63;31.31;100567.19;5160215;27;1074;-37
2021/09/12 03:52:15;;;;;;;;;;;;;;;25.05;31.31;100563.75;5160703;27;1968;-37
2021/09/12 03:54:40;;;;;;;;;;;;;;;25.46;30.50;100563.75;5160075;27;918;-37
2021/09/12 03:57:05;;;;;;;;;;;;;;;26.34;30.33;100570.78;5160356;27;771;-42
2021/09/12 03:59:31;;;;;;;;;;;;;;;26.84;30.47;100570.28;5159476;27;1020;-37
2021/09/12 04:01:56;;;;;;;;;;;;;;;26.82;29.27;100581.28;5160342;27;763;-40
2021/09/12 04:04:21;;;;;;;;;;;;;;;26.16;29.85;100578.13;5160511;27;758;-39
2021/09/12 04:06:47;;;;;;;;;;;;;;;26.72;29.62;100581.53;5159736;27;763;-37
2021/09/12 04:09:12;;;;;;;;;;;;;;;26.77;29.92;100580.97;5160406;27;802;-40
2021/09/12 04:11:37;;;;;;;;;;;;;;;26.76;29.63;100580.13;5160128;27;1905;-43
2021/09/12 04:14:02;;;;;;;;;;;;;;;26.90;29.87;100583.03;5159803;27;953;-47
2021/09/12 04:16:28;;;;;;;;;;;;;;;27.17;29.57;100585.28;5159484;27;962;-42
2021/09/12 04:18:53;;;;;;;;;;;;;;;27.18;29.69;100585.09;5160053;27;763;-42
2021/09/12 04:21:18;;;;;;;;;;;;;;;27.33;29.56;100595.03;5159900;27;1549;-51
2021/09/12 04:23:44;;;;;;;;;;;;;;;27.19;29.30;100588.66;5159863;27;879;-53
2021/09/12 04:26:09;;;;;;;;;;;;;;;27.10;29.55;100601.41;5159999;27;854;-44
2021/09/12 04:28:34;;;;;;;;;;;;;;;27.12;29.53;100593.97;5158986;27;926;-42
2021/09/12 04:30:59;;;;;;;;;;;;;;;26.92;30.17;100596.34;5159505;27;1954;-40
2021/09/12 04:33:25;;;;;;;;;;;;;;;27.02;29.75;100602.34;5159990;27;837;-39
2021/09/12 04:35:50;;;;;;;;;;;;;;;26.94;30.09;100600.53;5159605;27;782;-42
2021/09/12 04:38:15;;;;;;;;;;;;;;;27.12;29.83;100610.16;5159884;27;809;-41
2021/09/12 04:40:41;;;;;;;;;;;;;;;26.94;29.67;100599.69;5159640;27;889;-40
2021/09/12 04:43:06;;;;;;;;;;;;;;;26.99;30.00;100602.69;5159732;27;821;-43
2021/09/12 04:45:31;;;;;;;;;;;;;;;26.91;30.13;100606.28;5158996;27;1004;-47
2021/09/12 04:47:56;;;;;;;;;;;;;;;26.90;29.76;100612.72;5159245;27;1244;-50
2021/09/12 04:50:22;;;;;;;;;;;;;;;26.68;30.05;100611.75;5159237;27;847;-45
2021/09/12 04:52:47;;;;;;;;;;;;;;;26.88;29.78;100598.56;5159367;27;1913;-44
2021/09/12 04:55:12;;;;;;;;;;;;;;;27.09;29.67;100605.13;5159144;27;794;-44
2021/09/12 04:57:38;;;;;;;;;;;;;;;26.90;29.60;100604.63;5158865;27;798;-45
2021/09/12 05:00:03;;;;;;;;;;;;;;;26.93;29.88;100606.94;5159180;27;1020;-44
2021/09/12 05:02:29;;;;;;;;;;;;;;;27.02;29.39;100611.28;5160011;27;786;-45
2021/09/12 05:04:54;;;;;;;;;;;;;;;27.26;29.68;100614.72;5158931;27;818;-46
2021/09/12 05:07:19;;;;;;;;;;;;;;;27.57;29.75;100607.41;5139839;27;827;-42
2021/09/12 05:09:44;;;;;;;;;;;;;;;27.79;30.16;100617.44;5159319;27;767;-50
2021/09/12 05:12:10;;;;;;;;;;;;;;;27.92;29.76;100608.63;5158699;27;1957;-44
2021/09/12 05:14:35;;;;;;;;;;;;;;;27.94;29.70;100607.44;5139126;27;958;-46
2021/09/12 05:17:00;;;;;;;;;;;;;;;27.99;29.44;100614.97;5158931;27;827;-44
2021/09/12 05:19:26;;;;;;;;;;;;;;;27.97;29.80;100614.31;5158427;27;830;-41
2021/09/12 05:21:51;;;;;;;;;;;;;;;28.14;29.70;100614.06;5158793;27;1593;-55
2021/09/12 05:24:16;;;;;;;;;;;;;;;28.03;29.90;100600.00;5159008;27;787;-46
2021/09/12 05:26:41;;;;;;;;;;;;;;;28.21;29.47;100604.97;5159048;27;755;-44
2021/09/12 05:29:07;;;;;;;;;;;;;;;28.19;29.26;100601.66;5158126;27;953;-43
2021/09/12 05:31:32;;;;;;;;;;;;;;;28.23;29.36;100611.03;5158646;27;1913;-40
2021/09/12 05:33:57;;;;;;;;;;;;;;;28.17;29.49;100600.16;5158487;27;783;-43
2021/09/12 05:36:23;;;;;;;;;;;;;;;28.24;29.65;100601.88;5158302;27;779;-42
2021/09/12 05:38:49;;;;;;;;;;;;;;;28.07;29.36;100603.19;5158440;27;751;-40
2021/09/12 05:41:15;;;;;;;;;;;;;;;28.06;30.08;100594.22;5158455;27;841;-44
2021/09/12 05:43:40;;;;;;;;;;;;;;;28.01;29.89;100593.94;5157822;27;918;-48
2021/09/12 05:46:05;;;;;;;;;;;;;;;28.08;29.50;100596.72;5158259;27;846;-45
2021/09/12 05:48:31;;;;;;;;;;;;;;;28.17;29.45;100594.75;5158040;27;1154;-45
2021/09/12 05:50:56;;;;;;;;;;;;;;;28.07;29.66;100595.91;5156933;27;1117;-46
2021/09/12 05:53:24;;;;;;;;;;;;;;;28.08;30.07;100594.03;5158587;27;894;-45
2021/09/12 05:55:49;;;;;;;;;;;;;;;28.08;29.44;100596.72;5157986;27;787;-47
2021/09/12 05:58:14;;;;;;;;;;;;;;;28.13;29.35;100590.75;5139113;27;763;-46
2021/09/12 06:00:40;;;;;;;;;;;;;;;28.17;29.72;100592.03;5138186;27;996;-46
2021/09/12 06:03:05;;;;;;;;;;;;;;;28.16;29.57;100590.38;5137299;27;767;-43
2021/09/12 06:05:30;;;;;;;;;;;;;;;28.19;29.92;100589.97;5136612;27;755;-47
2021/09/12 06:07:56;;;;;;;;;;;;;;;27.87;31.70;100596.56;5137324;27;923;-49
2021/09/12 06:10:21;;;;;;;;;;;;;;;27.98;31.31;100591.63;5160985;27;1317;-57
2021/09/12 06:12:47;;;;;;;;;;;;;;;28.07;30.72;100587.78;5137545;27;1966;-46
2021/09/12 06:15:12;;;;;;;;;;;;;;;28.22;30.07;100585.03;5157405;27;997;-56
2021/09/12 06:17:38;;;;;;;;;;;;;;;28.23;30.70;100589.38;5156838;27;1180;-43
2021/09/12 06:20:03;;;;;;;;;;;;;;;28.25;31.26;100583.78;5157702;27;822;-48
2021/09/12 06:22:29;;;;;;;;;;;;;;;28.28;32.20;100585.28;5157619;27;1804;-47
2021/09/12 06:24:54;;;;;;;;;;;;;;;28.39;32.14;100583.94;5157335;27;882;-43
2021/09/12 06:27:19;;;;;;;;;;;;;;;28.23;32.41;100589.38;5157529;27;798;-45
2021/09/12 06:29:45;;;;;;;;;;;;;;;28.39;32.37;100583.94;5138253;27;970;-44
2021/09/12 06:32:10;;;;;;;;;;;;;;;28.44;32.38;100593.16;5157815;27;1976;-42
2021/09/12 06:34:35;;;;;;;;;;;;;;;28.46;32.14;100590.25;5157306;27;806;-60
2021/09/12 06:37:00;;;;;;;;;;;;;;;28.43;32.27;100596.00;5157347;27;822;-52
2021/09/12 06:39:26;;;;;;;;;;;;;;;28.49;32.25;100603.38;5139089;27;777;-43
2021/09/12 06:41:51;;;;;;;;;;;;;;;28.48;32.14;100604.38;5157484;27;881;-40
2021/09/12 06:44:16;;;;;;;;;;;;;;;28.54;31.96;100602.78;5157318;27;917;-46
2021/09/12 06:46:42;;;;;;;;;;;;;;;28.52;31.91;100600.28;5157405;27;802;-43
2021/09/12 06:49:07;;;;;;;;;;;;;;;28.53;32.12;100601.94;5156724;27;1085;-50
2021/09/12 06:51:33;;;;;;;;;;;;;;;28.54;32.03;100597.38;5138111;27;1973;-44
2021/09/12 06:53:58;;;;;;;;;;;;;;;28.57;31.53;100588.84;5157869;27;850;-55
2021/09/12 06:56:23;;;;;;;;;;;;;;;28.68;31.48;100601.00;5157071;27;763;-53
2021/09/12 06:58:48;;;;;;;;;;;;;;;28.64;31.40;100599.72;5157071;27;1028;-44
2021/09/12 07:01:14;;;;;;;;;;;;;;;28.69;31.09;100600.81;5162762;27;1143;-53
2021/09/12 07:03:39;;;;;;;;;;;;;;;28.72;31.26;100594.16;5175907;27;778;-42
2021/09/12 07:06:04;;;;;;;;;;;;;;;28.71;31.55;100606.84;5178440;27;735;-43
2021/09/12 07:08:30;;;;;;;;;;;;;;;28.75;31.09;100598.31;5178329;27;810;-40
2021/09/12 07:10:55;;;;;;;;;;;;;;;28.79;31.18;100599.63;5177800;27;832;-44
2021/09/12 07:13:20;;;;;;;;;;;;;;;28.91;30.72;100594.50;5171974;27;1971;-45
2021/09/12 07:15:46;;;;;;;;;;;;;;;28.91;30.82;100595.31;5157441;27;933;-45
2021/09/12 07:18:11;;;;;;;;;;;;;;;28.94;30.66;100589.53;5159546;27;869;-50
2021/09/12 07:20:36;;;;;;;;;;;;;;;28.98;30.39;100587.25;5142644;27;1561;-48
2021/09/12 07:23:02;;;;;;;;;;;;;;;28.97;30.48;100585.59;5160462;27;975;-54
2021/09/12 07:25:27;;;;;;;;;;;;;;;29.09;30.04;100583.97;5160753;27;799;-42
2021/09/12 07:27:54;;;;;;;;;;;;;;;29.22;29.87;100590.50;5173782;27;855;-44
2021/09/12 07:30:19;;;;;;;;;;;;;;;29.16;30.34;100594.03;5164182;27;921;-60
2021/09/12 07:32:44;;;;;;;;;;;;;;;29.09;30.20;100588.59;5160461;27;1901;-51
2021/09/12 07:35:10;;;;;;;;;;;;;;;29.16;30.20;100596.75;5161199;27;747;-45
2021/09/12 07:37:35;;;;;;;;;;;;;;;29.31;29.98;100596.59;5161292;27;762;-44
2021/09/12 07:40:00;;;;;;;;;;;;;;;29.36;29.90;100588.72;5160436;27;739;-45
2021/09/12 07:42:26;;;;;;;;;;;;;;;29.35;29.87;100595.16;5160390;27;746;-46
2021/09/12 07:44:51;;;;;;;;;;;;;;;29.30;30.01;100593.06;5161758;27;1348;-45
2021/09/12 07:47:16;;;;;;;;;;;;;;;29.37;29.77;100593.06;5175381;27;801;-49
2021/09/12 07:49:42;;;;;;;;;;;;;;;29.35;29.65;100595.16;5164053;27;971;-45
2021/09/12 07:52:07;;;;;;;;;;;;;;;29.24;29.96;100590.31;5160360;27;1930;-49
2021/09/12 07:54:32;;;;;;;;;;;;;;;29.18;29.75;100589.22;5160205;27;1532;-45
2021/09/12 07:56:58;;;;;;;;;;;;;;;29.18;30.65;100586.53;5166529;27;843;-46
2021/09/12 07:59:23;;;;;;;;;;;;;;;29.22;30.57;100579.69;5161220;27;850;-43
2021/09/12 08:01:48;;;;;;;;;;;;;;;29.08;31.07;100579.63;5180963;27;846;-45
2021/09/12 08:04:13;;;;;;;;;;;;;;;29.11;30.91;100583.81;5181061;27;750;-44
2021/09/12 08:06:39;;;;;;;;;;;;;;;28.96;30.86;100576.59;5179320;27;728;-40
2021/09/12 08:09:04;;;;;;;;;;;;;;;29.13;30.76;100565.47;5160171;27;836;-42
2021/09/12 08:11:29;;;;;;;;;;;;;;;29.08;31.17;100570.63;5159902;27;1905;-55
2021/09/12 08:13:55;;;;;;;;;;;;;;;29.01;31.28;100558.97;5159763;27;953;-44
2021/09/12 08:16:20;;;;;;;;;;;;;;;29.14;31.28;100559.03;5160210;27;793;-46
2021/09/12 08:18:45;;;;;;;;;;;;;;;29.18;31.29;100563.00;5159898;27;774;-44
2021/09/12 08:21:11;;;;;;;;;;;;;;;28.95;31.26;100563.25;5159104;27;1295;-42
2021/09/12 08:23:36;;;;;;;;;;;;;;;29.20;31.13;100555.50;5159832;27;846;-43
2021/09/12 08:26:02;;;;;;;;;;;;;;;29.18;30.98;100560.28;5159654;27;743;-47
2021/09/12 08:28:27;;;;;;;;;;;;;;;29.22;31.65;100558.00;5159046;27;1004;-44
2021/09/12 08:30:52;;;;;;;;;;;;;;;29.24;31.89;100553.22;5138773;27;779;-43
2021/09/12 08:33:18;;;;;;;;;;;;;;;29.22;32.56;100544.47;5138485;27;1972;-44
2021/09/12 08:35:43;;;;;;;;;;;;;;;29.31;32.18;100550.56;5138890;27;783;-42
2021/09/12 08:38:08;;;;;;;;;;;;;;;29.24;32.14;100545.09;5138891;27;899;-43
2021/09/12 08:40:34;;;;;;;;;;;;;;;29.38;31.94;100554.09;5138679;27;763;-47
2021/09/12 08:42:59;;;;;;;;;;;;;;;29.28;32.40;100540.13;5138460;27;774;-44
2021/09/12 08:45:25;;;;;;;;;;;;;;;29.42;31.87;100539.13;5155187;27;1094;-47
2021/09/12 08:47:50;;;;;;;;;;;;;;;29.33;32.20;100540.31;5159123;27;1115;-55
2021/09/12 08:50:15;;;;;;;;;;;;;;;29.27;32.86;100530.31;5159746;27;861;-44
2021/09/12 08:52:41;;;;;;;;;;;;;;;29.29;32.69;100518.25;5159334;27;1906;-44
2021/09/12 08:55:06;;;;;;;;;;;;;;;29.30;32.38;100517.19;5140306;27;1108;-45
2021/09/12 08:57:32;;;;;;;;;;;;;;;29.15;33.38;100535.47;5159237;27;751;-45
2021/09/12 08:59:57;;;;;;;;;;;;;;;29.16;33.18;100534.44;5158411;27;941;-45
2021/09/12 09:02:24;;;;;;;;;;;;;;;29.22;32.84;100522.78;5158797;27;767;-45
2021/09/12 09:04:49;;;;;;;;;;;;;;;29.16;33.41;100526.31;5159554;27;846;-44
2021/09/12 09:07:14;;;;;;;;;;;;;;;29.12;33.33;100522.34;5140434;27;1540;-43
2021/09/12 09:09:44;;;;;;;;;;;;;;;29.03;33.41;100527.09;5158849;27;870;-54
2021/09/12 09:12:25;;;;;;;;;;;;;;;29.17;33.55;100528.81;5158453;27;1965;-44
2021/09/12 09:15:01;;;;;;;;;;;;;;;29.15;33.03;100530.03;5158348;27;1080;-43
2021/09/12 09:17:26;;;;;;;;;;;;;;;29.00;33.86;100516.66;5158788;27;763;-42
2021/09/12 09:19:52;;;;;;;;;;;;;;;29.08;33.23;100516.47;5158805;27;791;-43
2021/09/12 09:22:30;;;;;;;;;;;;;;;29.00;33.74;100519.34;5158783;27;1299;-44
2021/09/12 09:24:59;;;;;;;;;;;;;;;29.04;33.41;100524.19;5158277;27;775;-45
2021/09/12 09:27:24;;;;;;;;;;;;;;;29.06;33.99;100510.44;5158859;27;779;-44
2021/09/12 09:29:52;;;;;;;;;;;;;;;29.06;33.22;100516.69;5146155;27;1011;-43
2021/09/12 09:32:18;;;;;;;;;;;;;;;28.91;34.20;100510.56;5137584;27;1957;-45
2021/09/12 09:34:43;;;;;;;;;;;;;;;29.03;33.66;100510.84;5138077;27;759;-43
2021/09/12 09:37:09;;;;;;;;;;;;;;;28.99;33.95;100507.72;5119238;27;759;-43
2021/09/12 09:39:41;;;;;;;;;;;;;;;28.94;33.62;100504.75;5137541;27;812;-43
2021/09/12 09:42:06;;;;;;;;;;;;;;;28.97;34.33;100496.25;5137769;27;779;-43
2021/09/12 09:44:31;;;;;;;;;;;;;;;28.99;33.51;100501.47;5137637;27;1023;-44
2021/09/12 09:46:59;;;;;;;;;;;;;;;28.92;34.72;100502.25;5137712;27;776;-43
2021/09/12 09:49:25;;;;;;;;;;;;;;;28.95;33.73;100498.28;5119110;27;1509;-42
2021/09/12 09:51:58;;;;;;;;;;;;;;;29.00;34.05;100495.00;5137039;27;1959;-42
2021/09/12 09:54:24;;;;;;;;;;;;;;;28.81;34.15;100495.50;5137335;27;791;-44
2021/09/12 09:56:49;;;;;;;;;;;;;;;28.85;34.06;100493.25;5137471;27;802;-43
2021/09/12 09:59:15;;;;;;;;;;;;;;;28.87;34.41;100482.19;5137224;27;965;-47
2021/09/12 10:01:41;;;;;;;;;;;;;;;28.92;34.52;100490.56;5145747;27;1079;-43
2021/09/12 10:04:07;;;;;;;;;;;;;;;29.06;34.26;100484.19;5138927;27;1056;-43
2021/09/12 10:06:32;;;;;;;;;;;;;;;29.16;33.88;100488.41;5139387;27;813;-44
2021/09/12 10:08:57;;;;;;;;;;;;;;;29.14;34.27;100475.06;5157829;27;754;-43
2021/09/12 10:11:23;;;;;;;;;;;;;;;29.21;33.67;100488.63;5139827;27;1960;-43
2021/09/12 10:13:48;;;;;;;;;;;;;;;29.31;33.71;100480.13;5157448;27;1012;-42
2021/09/12 10:16:13;;;;;;;;;;;;;;;29.16;33.94;100483.78;5138978;27;751;-43
2021/09/12 10:18:39;;;;;;;;;;;;;;;29.16;34.25;100488.41;5139097;27;1123;-42
2021/09/12 10:21:20;;;;;;;;;;;;;;;29.05;34.99;100474.41;5157911;27;1561;-47
2021/09/12 10:23:55;;;;;;;;;;;;;;;29.04;34.21;100478.16;5157372;27;842;-42
2021/09/12 10:26:26;;;;;;;;;;;;;;;28.91;34.69;100472.66;5162837;27;1215;-57
2021/09/12 10:28:52;;;;;;;;;;;;;;;29.09;34.09;100472.94;5152605;27;1046;-53
2021/09/12 10:31:26;;;;;;;;;;;;;;;29.03;34.46;100472.94;5118141;28;1898;-42
2021/09/12 10:34:08;;;;;;;;;;;;;;;29.15;34.35;100463.19;5136845;28;751;-54
2021/09/12 10:36:33;;;;;;;;;;;;;;;28.99;34.61;100463.53;5136922;28;794;-44
2021/09/12 10:39:18;;;;;;;;;;;;;;;29.08;34.61;100457.75;5136356;28;763;-50
2021/09/12 10:41:47;;;;;;;;;;;;;;;29.06;34.50;100461.72;5136644;28;1096;-49
2021/09/12 10:44:13;;;;;;;;;;;;;;;29.03;34.45;100460.22;5117713;28;1310;-43
2021/09/12 10:46:38;;;;;;;;;;;;;;;28.60;34.34;100458.56;5136350;28;833;-44
2021/09/12 10:49:04;;;;;;;;;;;;;;;28.82;34.79;100462.00;5136793;28;1310;-48
2021/09/12 10:51:30;;;;;;;;;;;;;;;28.96;35.07;100462.06;5136592;27;1977;-49
2021/09/12 10:53:55;;;;;;;;;;;;;;;29.08;35.05;100460.44;5140558;27;828;-44
2021/09/12 10:56:21;;;;;;;;;;;;;;;29.07;34.88;100466.91;5140301;27;793;-41
2021/09/12 10:58:46;;;;;;;;;;;;;;;28.99;35.03;100452.72;5139952;27;1033;-41
2021/09/12 11:01:12;;;;;;;;;;;;;;;29.09;35.05;100459.41;5140604;27;802;-47
2021/09/12 11:03:37;;;;;;;;;;;;;;;29.28;34.78;100453.44;5140851;27;818;-49
2021/09/12 11:06:03;;;;;;;;;;;;;;;29.39;34.33;100460.94;5140624;27;795;-43
2021/09/12 11:08:38;;;;;;;;;;;;;;;29.49;34.08;100457.84;5140442;27;789;-42
2021/09/12 11:11:04;;;;;;;;;;;;;;;29.60;33.99;100459.13;5140574;27;843;-42
2021/09/12 11:13:29;;;;;;;;;;;;;;;29.50;34.43;100461.38;5140293;27;1962;-43
2021/09/12 11:16:05;;;;;;;;;;;;;;;29.45;34.36;100457.41;5140193;27;748;-50
2021/09/12 11:18:48;;;;;;;;;;;;;;;29.54;34.57;100452.63;5140200;27;824;-43
2021/09/12 11:21:23;;;;;;;;;;;;;;;29.56;34.33;100455.13;5150551;27;1355;-37
2021/09/12 11:23:53;;;;;;;;;;;;;;;29.67;34.24;100451.00;5161053;27;830;-43
2021/09/12 11:26:18;;;;;;;;;;;;;;;29.65;34.13;100453.91;5142577;27;1304;-50
2021/09/12 11:28:43;;;;;;;;;;;;;;;29.60;34.27;100447.44;5157752;27;997;-45
2021/09/12 11:31:09;;;;;;;;;;;;;;;29.48;34.30;100449.91;5121634;27;1151;-53
2021/09/12 11:33:50;;;;;;;;;;;;;;;29.39;34.67;100443.84;5139768;27;838;-44
2021/09/12 11:36:15;;;;;;;;;;;;;;;29.41;34.93;100441.78;5140138;27;755;-45
2021/09/12 11:38:40;;;;;;;;;;;;;;;29.35;35.00;100440.72;5140123;27;803;-48
2021/09/12 11:41:06;;;;;;;;;;;;;;;29.24;35.80;100435.91;5140281;27;782;-46
2021/09/12 11:43:31;;;;;;;;;;;;;;;29.02;35.86;100434.19;5139701;27;910;-44
2021/09/12 11:46:14;;;;;;;;;;;;;;;29.27;35.44;100439.03;5139119;27;736;-57
2021/09/12 11:48:41;;;;;;;;;;;;;;;29.31;35.43;100434.88;5121200;27;1039;-51
2021/09/12 11:51:06;;;;;;;;;;;;;;;29.34;35.06;100436.34;5121344;27;1494;-42
2021/09/12 11:53:31;;;;;;;;;;;;;;;29.50;34.93;100435.09;5139362;27;1909;-44
2021/09/12 11:56:09;;;;;;;;;;;;;;;29.48;35.08;100430.94;5139753;27;798;-56
2021/09/12 11:58:35;;;;;;;;;;;;;;;29.45;35.20;100424.06;5139298;27;950;-42
2021/09/12 12:01:00;;;;;;;;;;;;;;;29.32;35.28;100425.72;5138936;27;707;-44
2021/09/12 12:03:25;;;;;;;;;;;;;;;29.27;35.66;100417.38;5138590;27;799;-43
2021/09/12 12:05:51;;;;;;;;;;;;;;;29.32;35.72;100425.72;5120819;27;792;-42
2021/09/12 12:08:18;;;;;;;;;;;;;;;29.32;35.47;100417.59;5153762;27;1008;-43
2021/09/12 12:10:43;;;;;;;;;;;;;;;29.43;35.46;100421.56;5160216;27;758;-45
2021/09/12 12:13:09;;;;;;;;;;;;;;;29.46;35.14;100413.00;5141260;27;1970;-44
2021/09/12 12:15:35;;;;;;;;;;;;;;;29.50;34.93;100412.59;5158770;27;949;-42
2021/09/12 12:18:01;;;;;;;;;;;;;;;29.30;35.54;100418.81;5160195;27;791;-44
2021/09/12 12:20:35;;;;;;;;;;;;;;;29.41;35.38;100414.69;5159808;27;821;-53
2021/09/12 12:23:17;;;;;;;;;;;;;;;29.40;34.80;100416.56;5138680;27;828;-47
2021/09/12 12:25:42;;;;;;;;;;;;;;;29.43;34.48;100421.56;5138785;27;767;-42
2021/09/12 12:28:15;;;;;;;;;;;;;;;29.35;34.28;100421.75;5138957;27;801;-44
2021/09/12 12:30:40;;;;;;;;;;;;;;;29.39;34.79;100428.44;5158153;27;1654;-52
2021/09/12 12:33:06;;;;;;;;;;;;;;;29.20;34.68;100428.19;5160008;27;1954;-48
2021/09/12 12:35:32;;;;;;;;;;;;;;;29.24;35.65;100425.06;5159721;27;811;-45
2021/09/12 12:37:57;;;;;;;;;;;;;;;29.36;35.26;100422.59;5159335;27;826;-45
2021/09/12 12:40:22;;;;;;;;;;;;;;;29.26;35.62;100429.22;5159517;27;802;-45
2021/09/12 12:42:51;;;;;;;;;;;;;;;28.92;33.79;100423.72;5159501;27;814;-47
2021/09/12 12:45:23;;;;;;;;;;;;;;;28.13;35.10;100426.63;5158690;27;909;-45
2021/09/12 12:47:48;;;;;;;;;;;;;;;28.49;35.42;100430.22;5159312;27;1537;-45